createdAt,value
2023-04-15T00:02:15.964Z,7.35
2023-04-15T00:09:09.844Z,8.27
2023-04-15T00:34:24.799Z,8.85
2023-04-15T00:36:52.694Z,8.60
2023-04-15T00:39:44.133Z,9.20
2023-04-15T00:42:13.448Z,10.40
2023-04-15T00:44:41.152Z,8.88
2023-04-15T00:47:09.757Z,8.15
2023-04-15T00:49:37.409Z,8.87
2023-04-15T00:52:36.571Z,7.70
2023-04-15T00:55:06.153Z,8.48
2023-04-15T00:58:26.961Z,8.35
2023-04-15T01:00:55.885Z,9.55
2023-04-15T01:03:23.931Z,7.30
2023-04-15T01:05:58.283Z,8.10
2023-04-15T01:08:29.420Z,7.57
2023-04-15T01:11:00.070Z,9.32
2023-04-15T01:13:28.203Z,8.90
2023-04-15T01:20:16.825Z,9.73
2023-04-15T01:22:45.273Z,6.88
2023-04-15T01:34:25.360Z,10.63
2023-04-15T01:37:26.403Z,9.00
2023-04-15T01:39:57.609Z,9.13
2023-04-15T01:42:25.102Z,8.73
2023-04-15T01:44:53.994Z,9.38
2023-04-15T01:47:23.327Z,7.00
2023-04-15T01:49:52.188Z,8.05
2023-04-15T01:52:21.027Z,7.00
2023-04-15T01:54:49.922Z,8.73
2023-04-15T01:57:20.966Z,6.20
2023-04-15T01:59:50.391Z,6.20
2023-04-15T02:02:19.303Z,8.65
2023-04-15T02:04:48.403Z,6.15
2023-04-15T02:07:18.515Z,5.68
2023-04-15T02:09:47.758Z,7.93
2023-04-15T02:12:16.577Z,8.23
2023-04-15T02:14:45.401Z,8.43
2023-04-15T02:17:14.191Z,7.18
2023-04-15T02:19:45.413Z,5.75
2023-04-15T02:22:18.654Z,6.15
2023-04-15T02:24:48.828Z,6.87
2023-04-15T02:27:18.423Z,6.57
2023-04-15T02:29:47.410Z,6.28
2023-04-15T02:32:16.466Z,7.05
2023-04-15T02:34:45.486Z,7.40
2023-04-15T02:37:14.462Z,8.73
2023-04-15T02:39:43.559Z,6.68
2023-04-15T02:42:13.343Z,6.30
2023-04-15T02:44:42.235Z,6.65
2023-04-15T02:47:11.848Z,6.40
2023-04-15T02:49:41.061Z,6.73
2023-04-15T02:52:10.162Z,6.82
2023-04-15T02:54:39.162Z,7.10
2023-04-15T02:57:08.025Z,8.05
2023-04-15T02:59:36.940Z,5.45
2023-04-15T03:02:08.227Z,5.93
2023-04-15T03:04:37.045Z,7.43
2023-04-15T03:11:21.486Z,6.22
2023-04-15T03:13:50.685Z,7.20
2023-04-15T03:16:29.531Z,6.73
2023-04-15T03:19:00.106Z,7.75
2023-04-15T03:21:29.139Z,6.88
2023-04-15T03:23:58.000Z,7.75
2023-04-15T03:26:28.892Z,6.10
2023-04-15T03:33:26.888Z,6.32
2023-04-15T03:35:56.080Z,5.90
2023-04-15T03:38:24.930Z,6.03
2023-04-15T03:40:53.733Z,5.82
2023-04-15T03:43:22.608Z,5.50
2023-04-15T03:45:51.434Z,6.45
2023-04-15T03:48:20.579Z,5.65
2023-04-15T03:50:49.625Z,6.88
2023-04-15T03:53:18.789Z,5.78
2023-04-15T03:55:47.893Z,7.43
2023-04-15T03:58:16.689Z,7.60
2023-04-15T04:00:51.422Z,6.45
2023-04-15T04:03:20.650Z,6.85
2023-04-15T04:05:49.850Z,7.35
2023-04-15T04:08:19.802Z,7.53
2023-04-15T04:10:48.742Z,5.25
2023-04-15T04:13:17.611Z,6.15
2023-04-15T04:15:46.498Z,5.68
2023-04-15T04:18:15.484Z,6.68
2023-04-15T04:20:44.357Z,7.00
2023-04-15T04:23:13.428Z,5.95
2023-04-15T04:25:42.470Z,5.43
2023-04-15T04:28:11.740Z,7.20
2023-04-15T04:30:41.169Z,6.60
2023-04-15T04:33:10.107Z,5.67
2023-04-15T04:35:38.919Z,7.88
2023-04-15T04:38:07.744Z,7.45
2023-04-15T04:40:36.907Z,6.63
2023-04-15T04:43:05.747Z,6.75
2023-04-15T04:45:34.647Z,9.03
2023-04-15T04:48:07.269Z,7.45
2023-04-15T04:50:36.850Z,6.70
2023-04-15T04:53:06.030Z,7.15
2023-04-15T04:55:37.093Z,6.32
2023-04-15T04:58:06.087Z,5.80
2023-04-15T05:00:35.096Z,9.15
2023-04-15T05:03:04.754Z,6.32
2023-04-15T05:05:35.559Z,6.93
2023-04-15T05:08:04.639Z,5.80
2023-04-15T05:10:33.546Z,7.47
2023-04-15T05:13:02.454Z,6.65
2023-04-15T05:15:31.703Z,6.10
2023-04-15T05:18:00.921Z,5.80
2023-04-15T05:20:29.818Z,5.70
2023-04-15T05:22:58.645Z,5.87
2023-04-15T05:25:27.682Z,8.82
2023-04-15T05:27:56.487Z,6.30
2023-04-15T05:30:25.567Z,6.00
2023-04-15T05:32:54.380Z,6.28
2023-04-15T05:35:23.314Z,5.20
2023-04-15T05:37:52.123Z,5.20
2023-04-15T05:40:20.888Z,6.63
2023-04-15T05:42:49.745Z,6.57
2023-04-15T05:45:18.981Z,6.28
2023-04-15T05:47:47.919Z,7.07
2023-04-15T05:50:16.929Z,7.82
2023-04-15T05:52:46.258Z,9.35
2023-04-15T05:55:15.115Z,31.95
2023-04-15T05:57:43.948Z,44.83
2023-04-15T06:00:13.380Z,46.70
2023-04-15T06:02:42.707Z,43.30
2023-04-15T06:05:11.982Z,75.57
2023-04-15T06:07:41.228Z,54.13
2023-04-15T06:10:10.595Z,62.70
2023-04-15T06:12:39.498Z,53.57
2023-04-15T06:15:10.537Z,60.67
2023-04-15T06:17:39.539Z,46.20
2023-04-15T06:20:08.905Z,25.40
2023-04-15T06:22:39.528Z,40.85
2023-04-15T06:25:09.397Z,40.30
2023-04-15T06:27:38.244Z,41.63
2023-04-15T06:30:08.063Z,18.55
2023-04-15T06:32:37.026Z,14.18
2023-04-15T06:35:06.113Z,22.00
2023-04-15T06:37:35.072Z,27.43
2023-04-15T06:40:05.309Z,14.55
2023-04-15T06:42:34.604Z,21.98
2023-04-15T06:45:03.657Z,23.33
2023-04-15T06:47:32.519Z,15.80
2023-04-15T06:50:01.845Z,13.20
2023-04-15T06:52:30.655Z,20.50
2023-04-15T06:54:59.793Z,15.48
2023-04-15T06:57:29.265Z,14.07
2023-04-15T06:59:58.355Z,14.88
2023-04-15T07:02:27.477Z,16.03
2023-04-15T07:04:57.059Z,18.10
2023-04-15T07:07:26.495Z,18.20
2023-04-15T07:09:55.315Z,17.17
2023-04-15T07:12:24.393Z,16.50
2023-04-15T07:14:53.323Z,21.53
2023-04-15T07:17:22.297Z,23.40
2023-04-15T07:19:51.511Z,29.42
2023-04-15T07:22:20.293Z,24.55
2023-04-15T07:24:49.132Z,22.58
2023-04-15T07:27:18.173Z,17.23
2023-04-15T07:29:46.992Z,15.93
2023-04-15T07:32:15.858Z,18.92
2023-04-15T07:34:44.938Z,14.95
2023-04-15T07:37:13.936Z,15.32
2023-04-15T07:39:42.836Z,13.57
2023-04-15T07:42:11.915Z,16.73
2023-04-15T07:44:41.295Z,17.45
2023-04-15T07:47:10.871Z,15.15
2023-04-15T07:49:41.997Z,12.88
2023-04-15T07:52:11.550Z,14.43
2023-04-15T07:54:40.441Z,15.23
2023-04-15T07:57:09.292Z,16.98
2023-04-15T07:59:38.144Z,13.43
2023-04-15T08:02:07.184Z,12.88
2023-04-15T08:04:36.215Z,11.93
2023-04-15T08:07:06.198Z,13.07
2023-04-15T08:09:35.723Z,11.63
2023-04-15T08:12:04.797Z,9.88
2023-04-15T08:14:33.635Z,11.00
2023-04-15T08:17:02.567Z,13.33
2023-04-15T08:19:31.710Z,8.57
2023-04-15T08:22:00.689Z,8.55
2023-04-15T08:24:31.668Z,8.10
2023-04-15T08:27:04.340Z,9.55
2023-04-15T08:29:35.028Z,7.87
2023-04-15T08:32:04.108Z,7.72
2023-04-15T08:34:33.093Z,7.63
2023-04-15T08:37:01.996Z,7.60
2023-04-15T08:39:30.941Z,8.50
2023-04-15T08:42:07.320Z,9.90
2023-04-15T08:44:40.229Z,9.65
2023-04-15T08:47:09.419Z,13.10
2023-04-15T08:49:41.382Z,10.98
2023-04-15T08:52:10.932Z,9.55
2023-04-15T08:54:42.262Z,9.93
2023-04-15T08:57:15.671Z,11.93
2023-04-15T08:59:44.761Z,11.05
2023-04-15T09:02:13.953Z,12.85
2023-04-15T09:18:38.060Z,10.07
2023-04-15T09:21:12.201Z,12.88
2023-04-15T09:24:04.075Z,11.55
2023-04-15T09:26:35.000Z,10.57
2023-04-15T09:29:16.053Z,11.02
2023-04-15T09:31:44.951Z,11.32
2023-04-15T09:34:48.322Z,9.57
2023-04-15T09:47:11.725Z,9.38
2023-04-15T09:49:56.599Z,10.32
2023-04-15T09:52:26.203Z,7.95
2023-04-15T09:58:39.296Z,9.50
2023-04-15T10:01:13.843Z,9.48
2023-04-15T10:12:52.699Z,8.25
2023-04-15T10:15:22.620Z,8.47
2023-04-15T10:22:51.498Z,8.48
2023-04-15T10:25:21.651Z,8.43
2023-04-15T10:27:52.984Z,7.90
2023-04-15T10:44:20.468Z,7.28
2023-04-15T11:03:49.217Z,6.88
2023-04-15T11:20:49.269Z,7.53
2023-04-15T11:23:51.472Z,6.53
2023-04-15T11:26:27.195Z,6.82
2023-04-15T11:28:56.184Z,6.70
2023-04-15T11:31:40.878Z,7.20
2023-04-15T11:34:10.333Z,6.93
2023-04-15T11:36:39.317Z,6.05
2023-04-15T11:39:08.258Z,6.00
2023-04-15T11:41:37.096Z,6.53
2023-04-15T11:44:17.981Z,6.75
2023-04-15T11:46:46.939Z,6.60
2023-04-15T11:49:31.091Z,6.90
2023-04-15T11:51:58.814Z,5.22
2023-04-15T11:54:26.620Z,6.67
2023-04-15T11:56:54.743Z,5.22
2023-04-15T11:59:22.933Z,6.78
2023-04-15T12:01:52.525Z,5.13
2023-04-15T12:04:25.136Z,6.38
2023-04-15T12:06:53.366Z,6.33
2023-04-15T12:09:21.770Z,6.20
2023-04-15T12:11:57.422Z,6.43
2023-04-15T12:14:29.624Z,5.22
2023-04-15T12:17:00.569Z,4.65
2023-04-15T12:19:30.902Z,6.43
2023-04-15T12:22:04.497Z,5.53
2023-04-15T12:24:36.699Z,4.40
2023-04-15T12:27:06.350Z,4.05
2023-04-15T12:29:36.508Z,5.90
2023-04-15T12:32:19.825Z,4.43
2023-04-15T12:34:52.357Z,3.80
2023-04-15T12:37:20.597Z,3.92
2023-04-15T12:39:50.108Z,3.95
2023-04-15T12:42:18.342Z,4.15
2023-04-15T12:44:46.555Z,4.97
2023-04-15T12:47:14.382Z,5.60
2023-04-15T12:49:42.664Z,4.28
2023-04-15T12:52:10.347Z,4.72
2023-04-15T12:54:38.046Z,3.80
2023-04-15T12:57:07.501Z,3.63
2023-04-15T12:59:36.552Z,5.35
2023-04-15T13:02:04.633Z,5.10
2023-04-15T13:04:32.409Z,5.40
2023-04-15T13:07:00.039Z,5.40
2023-04-15T13:09:27.649Z,4.23
2023-04-15T13:11:56.235Z,3.50
2023-04-15T13:14:23.749Z,3.83
2023-04-15T13:16:51.330Z,5.38
2023-04-15T13:19:18.961Z,3.03
2023-04-15T13:21:46.521Z,4.97
2023-04-15T13:24:14.109Z,4.25
2023-04-15T13:26:42.125Z,4.03
2023-04-15T13:29:09.949Z,17.45
2023-04-15T13:31:37.580Z,3.35
2023-04-15T13:34:05.748Z,5.10
2023-04-15T13:36:33.453Z,3.83
2023-04-15T13:39:00.987Z,3.90
2023-04-15T13:41:28.616Z,3.53
2023-04-15T13:43:56.706Z,3.15
2023-04-15T13:46:25.854Z,3.90
2023-04-15T13:48:53.684Z,4.95
2023-04-15T13:51:21.223Z,3.03
2023-04-15T13:53:48.817Z,2.53
2023-04-15T13:56:16.922Z,5.47
2023-04-15T13:58:44.497Z,5.17
2023-04-15T14:01:12.168Z,3.88
2023-04-15T14:03:39.999Z,4.60
2023-04-15T14:06:08.553Z,2.67
2023-04-15T14:08:36.137Z,4.65
2023-04-15T14:11:04.017Z,4.63
2023-04-15T14:13:31.641Z,2.58
2023-04-15T14:15:59.252Z,3.17
2023-04-15T14:18:27.002Z,2.95
2023-04-15T14:20:54.565Z,3.00
2023-04-15T14:23:23.003Z,3.07
2023-04-15T14:25:51.224Z,2.50
2023-04-15T14:28:18.793Z,3.38
2023-04-15T14:30:46.636Z,2.00
2023-04-15T14:33:14.261Z,3.10
2023-04-15T14:35:41.940Z,2.73
2023-04-15T14:38:11.506Z,1.52
2023-04-15T14:40:41.341Z,1.35
2023-04-15T14:43:08.992Z,3.13
2023-04-15T14:45:40.483Z,2.25
2023-04-15T14:48:12.815Z,1.97
2023-04-15T14:50:40.780Z,1.77
2023-04-15T14:53:08.399Z,3.17
2023-04-15T14:55:36.049Z,2.10
2023-04-15T14:58:04.494Z,1.92
2023-04-15T15:00:32.143Z,1.73
2023-04-15T15:03:00.457Z,2.95
2023-04-15T15:05:28.139Z,2.22
2023-04-15T15:07:55.788Z,2.10
2023-04-15T15:10:48.456Z,2.47
2023-04-15T15:13:11.165Z,5.80
2023-04-15T15:15:39.270Z,1.80
2023-04-15T15:18:07.089Z,2.80
2023-04-15T15:20:35.536Z,1.65
2023-04-15T15:23:03.202Z,3.00
2023-04-15T15:25:30.739Z,3.70
2023-04-15T15:27:58.391Z,1.75
2023-04-15T15:30:26.197Z,7.55
2023-04-15T15:32:53.941Z,3.50
2023-04-15T15:35:23.121Z,4.07
2023-04-15T15:37:50.930Z,4.77
2023-04-15T15:40:18.504Z,4.47
2023-04-15T15:42:47.341Z,5.18
2023-04-15T15:45:14.884Z,4.97
2023-04-15T15:47:43.533Z,3.83
2023-04-15T15:50:13.075Z,3.77
2023-04-15T15:52:41.042Z,3.63
2023-04-15T15:55:09.021Z,4.35
2023-04-15T15:57:36.783Z,3.92
2023-04-15T16:00:11.871Z,4.20
2023-04-15T16:03:05.028Z,3.50
2023-04-15T16:05:29.073Z,3.90
2023-04-15T16:07:56.724Z,3.63
2023-04-15T16:10:24.478Z,4.10
2023-04-15T16:12:52.086Z,3.95
2023-04-15T16:15:19.864Z,2.97
2023-04-15T16:17:47.460Z,3.75
2023-04-15T16:20:15.139Z,3.92
2023-04-15T16:22:42.846Z,4.00
2023-04-15T16:25:10.728Z,4.53
2023-04-15T16:30:10.447Z,2.78
2023-04-15T16:32:38.156Z,3.70
2023-04-15T16:35:06.434Z,3.85
2023-04-15T16:37:36.075Z,4.20
2023-04-15T16:40:04.333Z,14.97
2023-04-15T16:42:31.987Z,6.47
2023-04-15T16:44:59.671Z,5.60
2023-04-15T16:47:27.423Z,2.90
2023-04-15T16:49:55.066Z,2.50
2023-04-15T16:52:22.718Z,3.87
2023-04-15T16:54:50.361Z,4.32
2023-04-15T16:57:17.905Z,2.80
2023-04-15T16:59:45.823Z,2.45
2023-04-15T17:02:13.784Z,4.07
2023-04-15T17:04:41.919Z,1.80
2023-04-15T17:07:10.699Z,4.15
2023-04-15T17:09:39.977Z,3.00
2023-04-15T17:12:08.186Z,2.88
2023-04-15T17:14:35.897Z,2.28
2023-04-15T17:17:03.772Z,2.57
2023-04-15T17:19:36.316Z,3.45
2023-04-15T17:22:07.395Z,1.77
2023-04-15T17:24:36.264Z,3.75
2023-04-15T17:27:08.106Z,4.30
2023-04-15T17:29:37.412Z,3.37
2023-04-15T17:32:10.976Z,2.63
2023-04-15T17:34:58.526Z,4.20
2023-04-15T17:37:46.710Z,2.95
2023-04-15T17:40:34.274Z,4.00
2023-04-15T17:43:21.867Z,3.73
2023-04-15T17:46:10.434Z,3.17
2023-04-15T17:48:58.377Z,3.90
2023-04-15T17:51:46.769Z,3.80
2023-04-15T17:54:34.630Z,10.80
2023-04-15T17:57:22.292Z,23.93
2023-04-15T18:00:10.822Z,5.00
2023-04-15T18:03:01.215Z,6.38
2023-04-15T18:05:48.840Z,3.38
2023-04-15T18:08:36.263Z,5.32
2023-04-15T18:11:24.058Z,4.13
2023-04-15T18:14:12.611Z,3.50
2023-04-15T18:17:03.668Z,4.25
2023-04-15T18:19:51.800Z,5.78
2023-04-15T18:22:19.472Z,3.72
2023-04-15T18:24:47.034Z,4.43
2023-04-15T18:27:14.577Z,2.95
2023-04-15T18:29:43.098Z,4.65
2023-04-15T18:32:10.982Z,3.58
2023-04-15T18:34:38.770Z,4.55
2023-04-15T18:37:06.490Z,2.67
2023-04-15T18:39:34.107Z,4.28
2023-04-15T18:42:02.157Z,7.45
2023-04-15T18:44:29.827Z,4.25
2023-04-15T18:46:57.464Z,4.80
2023-04-15T18:49:27.199Z,4.57
2023-04-15T18:51:54.853Z,5.15
2023-04-15T18:54:22.504Z,3.97
2023-04-15T18:56:51.498Z,4.05
2023-04-15T18:59:29.410Z,5.13
2023-04-15T19:01:59.926Z,3.27
2023-04-15T19:04:29.507Z,5.00
2023-04-15T19:06:57.360Z,3.22
2023-04-15T19:09:25.809Z,2.53
2023-04-15T19:11:53.514Z,3.40
2023-04-15T19:14:21.132Z,4.23
2023-04-15T19:16:48.769Z,3.60
2023-04-15T19:19:16.494Z,4.10
2023-04-15T19:21:45.615Z,5.47
2023-04-15T19:24:13.302Z,4.15
2023-04-15T19:26:40.921Z,4.63
2023-04-15T19:29:08.529Z,5.95
2023-04-15T19:31:36.236Z,6.88
2023-04-15T19:34:03.832Z,4.50
2023-04-15T19:45:45.699Z,5.40
2023-04-15T19:48:13.637Z,4.45
2023-04-15T19:50:41.250Z,4.15
2023-04-15T19:53:08.903Z,7.07
2023-04-15T19:55:36.876Z,3.80
2023-04-15T19:58:04.485Z,4.35
2023-04-15T20:00:32.135Z,3.70
2023-04-15T20:03:00.304Z,5.32
2023-04-15T20:05:28.139Z,4.70
2023-04-15T20:07:56.352Z,5.80
2023-04-15T20:10:25.165Z,3.95
2023-04-15T20:12:53.500Z,5.13
2023-04-15T20:15:23.863Z,5.20
2023-04-15T20:17:51.777Z,4.93
2023-04-15T20:20:19.554Z,5.10
2023-04-15T20:22:47.556Z,4.50
2023-04-15T20:25:15.144Z,3.88
2023-04-15T20:27:42.851Z,5.15
2023-04-15T20:30:11.101Z,2.92
2023-04-15T20:32:39.016Z,2.60
2023-04-15T20:35:07.097Z,2.85
2023-04-15T20:37:34.857Z,3.65
2023-04-15T20:40:02.535Z,2.67
2023-04-15T20:42:37.000Z,3.17
2023-04-15T20:45:07.060Z,2.73
2023-04-15T20:47:34.672Z,3.25
2023-04-15T20:50:02.481Z,3.10
2023-04-15T20:52:30.087Z,5.63
2023-04-15T20:54:57.612Z,3.65
2023-04-15T20:57:25.497Z,3.30
2023-04-15T20:59:53.047Z,4.13
2023-04-15T21:02:22.187Z,2.50
2023-04-15T21:04:49.996Z,1.58
2023-04-15T21:07:17.568Z,1.65
2023-04-15T21:09:45.181Z,3.03
2023-04-15T21:12:13.087Z,3.67
2023-04-15T21:14:40.749Z,1.35
2023-04-15T21:17:11.146Z,2.47
2023-04-15T21:19:39.362Z,6.25
2023-04-15T21:22:06.872Z,3.20
2023-04-15T21:24:34.635Z,2.65
2023-04-15T21:27:02.246Z,3.25
2023-04-15T21:29:29.853Z,1.92
2023-04-15T21:31:57.430Z,2.13
2023-04-15T21:34:25.115Z,1.77
2023-04-15T21:36:52.713Z,2.42
2023-04-15T21:39:51.382Z,2.45
2023-04-15T21:42:19.131Z,1.88
2023-04-15T21:45:24.302Z,3.67
2023-04-15T21:48:00.387Z,2.43
2023-04-15T21:50:38.034Z,3.20
2023-04-15T21:53:14.172Z,4.22
2023-04-15T21:55:44.174Z,4.18
2023-04-15T21:58:11.763Z,2.63
2023-04-15T22:00:40.906Z,2.80
2023-04-15T22:03:09.488Z,2.30
2023-04-15T22:05:37.260Z,2.33
2023-04-15T22:08:05.685Z,2.72
2023-04-15T22:10:33.230Z,3.35
2023-04-15T22:13:03.082Z,3.13
2023-04-15T22:15:30.717Z,3.45
2023-04-15T22:17:58.302Z,2.65
2023-04-15T22:20:26.260Z,2.55
2023-04-15T22:22:54.468Z,3.38
2023-04-15T22:25:22.550Z,3.83
2023-04-15T22:27:50.365Z,2.85
2023-04-15T22:30:22.798Z,2.00
2023-04-15T22:32:50.463Z,3.47
2023-04-15T22:35:18.100Z,2.28
2023-04-15T22:37:46.019Z,2.03
2023-04-15T22:40:13.781Z,2.45
2023-04-15T22:42:41.364Z,2.15
2023-04-15T22:45:09.409Z,2.08
2023-04-15T22:47:37.054Z,2.30
2023-04-15T22:50:05.621Z,2.30
2023-04-15T22:52:33.441Z,3.15
2023-04-15T22:55:01.164Z,2.78
2023-04-15T22:57:28.854Z,2.67
2023-04-15T22:59:56.637Z,3.03
2023-04-15T23:02:24.466Z,2.00
2023-04-15T23:04:52.293Z,3.38
2023-04-15T23:07:19.890Z,2.58
2023-04-15T23:09:47.384Z,1.95
2023-04-15T23:12:15.037Z,2.67
2023-04-15T23:14:42.762Z,2.73
2023-04-15T23:17:10.436Z,2.97
2023-04-15T23:19:37.983Z,3.33
2023-04-15T23:22:07.191Z,1.95
2023-04-15T23:24:34.766Z,3.25
2023-04-15T23:27:02.285Z,2.00
2023-04-15T23:29:30.140Z,2.88
2023-04-15T23:31:58.007Z,3.72
2023-04-15T23:34:25.595Z,3.65
2023-04-15T23:36:53.128Z,2.72
2023-04-15T23:42:45.824Z,3.53
2023-04-15T23:45:13.617Z,2.45
2023-04-15T23:47:41.274Z,2.95
2023-04-15T23:50:09.426Z,2.75
2023-04-15T23:52:37.188Z,2.63
2023-04-15T23:55:05.122Z,1.73
2023-04-15T23:57:32.739Z,3.60
